To NAV CANADA Home Page Login to a new session Search on AWWS site Feedback and Comments Disclaimer Vers la page française équivalente Tips FAQ What's new on the site To the Forecasts and Observations / NOTAM section To "File a Flight Plan" website Publications and other links Update of the User's profile FIC Telephone Numbers My Weather Data Folder Route Weather Data Regional Weather Data Local Weather Data To the Forecasts and Observations / NOTAM section
Request Generated 01/21/2017 at 02:12:27 UTC . Weather information available at that time is displayed.

METAR/TAF

MONTREAL/ST-HUBERT/QC    (show WxCam)

METAR CYHU 210200Z AUTO 13005KT 9SM FEW018 00/M02 A2985 RMK SLP110=
SPECI CYHU 210127Z AUTO 11005KT 9SM SCT020 01/M02 A2986 RMK SLP114=
SPECI CYHU 210117Z AUTO 10005KT 9SM BKN022 01/M02 A2986 RMK SLP115=
SPECI CYHU 210104Z AUTO 10006KT 9SM SCT022 01/M02 A2986 RMK SLP116=
METAR CYHU 210100Z AUTO 11006KT 9SM BKN022 01/M02 A2986 RMK SLP116=
METAR CYHU 210000Z AUTO 10005KT 9SM OVC022 01/M02 A2987 RMK SLP119=

TAF AMD CYHU 210116Z 2101/2124 10006KT P6SM SCT020 TEMPO 2101/2107
BKN020
FM210700 05005KT 6SM BR OVC012 TEMPO 2107/2111 2SM BR OVC007
FM211100 VRB03KT 2SM -FZDZ BR OVC006 TEMPO 2111/2116 3SM BR
OVC010
FM211600 VRB03KT 11/2SM BR OVC006 TEMPO 2116/2121 3SM BR OVC010
FM212100 22006KT 3SM BR OVC008
RMK FCST BASED ON AUTO OBS. NXT FCST BY 210600Z=
Your time UTC time
Weather data provided by Environment Canada and NAV CANADA